sensor_id;sensor_type;location;lat;lon;timestamp;P1;durP1;ratioP1;P2;durP2;ratioP2
8656;SDS011;4366;50.764;7.184;2023-09-08T00:04:31;3.27;;;2.97;;
8656;SDS011;4366;50.764;7.184;2023-09-08T00:09:34;2.93;;;2.73;;
8656;SDS011;4366;50.764;7.184;2023-09-08T00:14:36;3.17;;;2.70;;
8656;SDS011;4366;50.764;7.184;2023-09-08T00:19:37;3.13;;;2.83;;
8656;SDS011;4366;50.764;7.184;2023-09-08T00:24:40;3.10;;;2.80;;
8656;SDS011;4366;50.764;7.184;2023-09-08T00:29:41;3.23;;;2.93;;
8656;SDS011;4366;50.764;7.184;2023-09-08T00:34:43;4.13;;;3.00;;
8656;SDS011;4366;50.764;7.184;2023-09-08T00:39:45;3.50;;;3.20;;
8656;SDS011;4366;50.764;7.184;2023-09-08T00:44:47;3.00;;;2.70;;
8656;SDS011;4366;50.764;7.184;2023-09-08T00:49:48;4.30;;;2.97;;
8656;SDS011;4366;50.764;7.184;2023-09-08T00:54:52;4.27;;;2.73;;
8656;SDS011;4366;50.764;7.184;2023-09-08T00:59:54;3.73;;;3.43;;
8656;SDS011;4366;50.764;7.184;2023-09-08T01:04:56;3.47;;;3.17;;
8656;SDS011;4366;50.764;7.184;2023-09-08T01:10:01;3.67;;;3.17;;
8656;SDS011;4366;50.764;7.184;2023-09-08T01:15:07;3.10;;;2.80;;
8656;SDS011;4366;50.764;7.184;2023-09-08T01:20:13;3.07;;;2.73;;
8656;SDS011;4366;50.764;7.184;2023-09-08T01:25:20;3.40;;;3.07;;
8656;SDS011;4366;50.764;7.184;2023-09-08T01:30:23;3.63;;;3.27;;
8656;SDS011;4366;50.764;7.184;2023-09-08T01:35:26;3.53;;;3.00;;
8656;SDS011;4366;50.764;7.184;2023-09-08T01:40:28;3.20;;;3.00;;
8656;SDS011;4366;50.764;7.184;2023-09-08T01:45:30;3.27;;;3.07;;
8656;SDS011;4366;50.764;7.184;2023-09-08T01:50:32;3.47;;;3.17;;
8656;SDS011;4366;50.764;7.184;2023-09-08T01:55:34;3.33;;;3.03;;
8656;SDS011;4366;50.764;7.184;2023-09-08T02:00:37;3.40;;;3.10;;
8656;SDS011;4366;50.764;7.184;2023-09-08T02:05:39;3.40;;;3.10;;
8656;SDS011;4366;50.764;7.184;2023-09-08T02:10:41;3.57;;;3.27;;
8656;SDS011;4366;50.764;7.184;2023-09-08T02:15:43;3.70;;;2.90;;
8656;SDS011;4366;50.764;7.184;2023-09-08T02:20:45;3.20;;;2.90;;
8656;SDS011;4366;50.764;7.184;2023-09-08T02:25:46;3.67;;;3.37;;
8656;SDS011;4366;50.764;7.184;2023-09-08T02:30:49;3.60;;;3.17;;
8656;SDS011;4366;50.764;7.184;2023-09-08T02:35:50;3.50;;;3.20;;
8656;SDS011;4366;50.764;7.184;2023-09-08T02:40:53;4.57;;;3.40;;
8656;SDS011;4366;50.764;7.184;2023-09-08T02:45:55;3.73;;;3.30;;
8656;SDS011;4366;50.764;7.184;2023-09-08T02:50:57;5.43;;;3.20;;
8656;SDS011;4366;50.764;7.184;2023-09-08T02:55:59;4.00;;;3.07;;
8656;SDS011;4366;50.764;7.184;2023-09-08T03:01:13;3.97;;;3.50;;
8656;SDS011;4366;50.764;7.184;2023-09-08T03:06:18;3.50;;;3.20;;
8656;SDS011;4366;50.764;7.184;2023-09-08T03:11:20;3.43;;;3.13;;
8656;SDS011;4366;50.764;7.184;2023-09-08T03:16:22;4.83;;;3.03;;
8656;SDS011;4366;50.764;7.184;2023-09-08T03:21:24;3.47;;;3.17;;
8656;SDS011;4366;50.764;7.184;2023-09-08T03:26:25;3.90;;;3.53;;
8656;SDS011;4366;50.764;7.184;2023-09-08T03:31:27;5.30;;;3.47;;
8656;SDS011;4366;50.764;7.184;2023-09-08T03:36:30;4.70;;;3.27;;
8656;SDS011;4366;50.764;7.184;2023-09-08T03:41:32;3.77;;;2.80;;
8656;SDS011;4366;50.764;7.184;2023-09-08T03:46:34;3.50;;;3.20;;
8656;SDS011;4366;50.764;7.184;2023-09-08T03:51:37;3.33;;;3.03;;
8656;SDS011;4366;50.764;7.184;2023-09-08T03:56:40;3.93;;;3.60;;
8656;SDS011;4366;50.764;7.184;2023-09-08T04:01:42;3.70;;;3.37;;
8656;SDS011;4366;50.764;7.184;2023-09-08T04:06:43;3.90;;;3.57;;
8656;SDS011;4366;50.764;7.184;2023-09-08T04:11:45;5.17;;;3.63;;
8656;SDS011;4366;50.764;7.184;2023-09-08T04:16:47;3.87;;;3.33;;
8656;SDS011;4366;50.764;7.184;2023-09-08T04:21:49;4.07;;;3.77;;
8656;SDS011;4366;50.764;7.184;2023-09-08T04:26:50;4.03;;;3.40;;
8656;SDS011;4366;50.764;7.184;2023-09-08T04:31:52;3.70;;;3.40;;
8656;SDS011;4366;50.764;7.184;2023-09-08T04:36:54;5.00;;;3.70;;
8656;SDS011;4366;50.764;7.184;2023-09-08T04:41:55;3.83;;;3.33;;
8656;SDS011;4366;50.764;7.184;2023-09-08T04:46:57;3.60;;;3.30;;
8656;SDS011;4366;50.764;7.184;2023-09-08T04:51:59;4.17;;;3.77;;
8656;SDS011;4366;50.764;7.184;2023-09-08T04:57:03;5.30;;;3.70;;
8656;SDS011;4366;50.764;7.184;2023-09-08T05:02:23;4.17;;;3.63;;
8656;SDS011;4366;50.764;7.184;2023-09-08T05:07:25;3.30;;;3.00;;
8656;SDS011;4366;50.764;7.184;2023-09-08T05:12:27;3.70;;;3.40;;
8656;SDS011;4366;50.764;7.184;2023-09-08T05:17:29;4.40;;;3.33;;
8656;SDS011;4366;50.764;7.184;2023-09-08T05:22:31;3.67;;;3.30;;
8656;SDS011;4366;50.764;7.184;2023-09-08T05:27:33;4.33;;;3.93;;
8656;SDS011;4366;50.764;7.184;2023-09-08T05:32:35;4.57;;;3.67;;
8656;SDS011;4366;50.764;7.184;2023-09-08T05:37:37;4.20;;;3.80;;
8656;SDS011;4366;50.764;7.184;2023-09-08T05:42:39;4.33;;;3.63;;
8656;SDS011;4366;50.764;7.184;2023-09-08T05:47:44;4.37;;;3.87;;
8656;SDS011;4366;50.764;7.184;2023-09-08T05:52:46;3.60;;;2.93;;
8656;SDS011;4366;50.764;7.184;2023-09-08T05:57:48;3.40;;;3.10;;
8656;SDS011;4366;50.764;7.184;2023-09-08T06:28:03;3.17;;;2.75;;
8656;SDS011;4366;50.764;7.184;2023-09-08T06:33:06;3.05;;;2.65;;
8656;SDS011;4366;50.764;7.184;2023-09-08T06:38:11;2.58;;;2.40;;
8656;SDS011;4366;50.764;7.184;2023-09-08T06:43:13;2.75;;;2.55;;
8656;SDS011;4366;50.764;7.184;2023-09-08T06:48:25;2.80;;;2.60;;
8656;SDS011;4366;50.764;7.184;2023-09-08T06:53:28;3.20;;;2.67;;
8656;SDS011;4366;50.764;7.184;2023-09-08T06:58:30;2.97;;;2.67;;
8656;SDS011;4366;50.764;7.184;2023-09-08T07:03:32;2.83;;;2.60;;
8656;SDS011;4366;50.764;7.184;2023-09-08T07:08:41;3.78;;;2.38;;
8656;SDS011;4366;50.764;7.184;2023-09-08T07:13:44;2.60;;;2.40;;
8656;SDS011;4366;50.764;7.184;2023-09-08T07:18:46;3.20;;;2.90;;
8656;SDS011;4366;50.764;7.184;2023-09-08T07:23:48;3.75;;;3.13;;
8656;SDS011;4366;50.764;7.184;2023-09-08T07:28:50;2.83;;;2.63;;
8656;SDS011;4366;50.764;7.184;2023-09-08T07:33:52;2.67;;;2.47;;
8656;SDS011;4366;50.764;7.184;2023-09-08T07:38:53;3.50;;;3.03;;
8656;SDS011;4366;50.764;7.184;2023-09-08T07:43:55;3.00;;;2.80;;
8656;SDS011;4366;50.764;7.184;2023-09-08T07:48:59;3.47;;;2.72;;
8656;SDS011;4366;50.764;7.184;2023-09-08T07:54:01;3.05;;;2.75;;
8656;SDS011;4366;50.764;7.184;2023-09-08T07:59:05;2.95;;;2.65;;
8656;SDS011;4366;50.764;7.184;2023-09-08T08:04:06;2.00;;;1.90;;
8656;SDS011;4366;50.764;7.184;2023-09-08T08:09:08;2.75;;;2.55;;
8656;SDS011;4366;50.764;7.184;2023-09-08T08:14:12;2.70;;;2.50;;
8656;SDS011;4366;50.764;7.184;2023-09-08T08:19:14;2.53;;;2.33;;
8656;SDS011;4366;50.764;7.184;2023-09-08T08:24:15;2.78;;;2.58;;
8656;SDS011;4366;50.764;7.184;2023-09-08T08:29:17;2.80;;;2.60;;
8656;SDS011;4366;50.764;7.184;2023-09-08T08:34:19;2.95;;;2.65;;
8656;SDS011;4366;50.764;7.184;2023-09-08T08:39:21;2.53;;;2.33;;
8656;SDS011;4366;50.764;7.184;2023-09-08T08:44:23;3.30;;;2.95;;
8656;SDS011;4366;50.764;7.184;2023-09-08T08:49:25;3.15;;;2.58;;
8656;SDS011;4366;50.764;7.184;2023-09-08T08:54:28;2.80;;;2.60;;
8656;SDS011;4366;50.764;7.184;2023-09-08T08:59:32;3.17;;;2.53;;
8656;SDS011;4366;50.764;7.184;2023-09-08T09:04:34;2.67;;;2.47;;
8656;SDS011;4366;50.764;7.184;2023-09-08T09:09:38;2.60;;;2.40;;
8656;SDS011;4366;50.764;7.184;2023-09-08T09:14:47;2.70;;;2.50;;
8656;SDS011;4366;50.764;7.184;2023-09-08T09:19:49;3.00;;;2.70;;
8656;SDS011;4366;50.764;7.184;2023-09-08T09:24:52;4.18;;;2.70;;
8656;SDS011;4366;50.764;7.184;2023-09-08T09:29:58;2.83;;;2.50;;
8656;SDS011;4366;50.764;7.184;2023-09-08T09:35:00;3.83;;;2.45;;
8656;SDS011;4366;50.764;7.184;2023-09-08T09:40:02;3.40;;;2.58;;
8656;SDS011;4366;50.764;7.184;2023-09-08T09:45:09;2.60;;;2.40;;
8656;SDS011;4366;50.764;7.184;2023-09-08T09:50:11;2.78;;;2.58;;
8656;SDS011;4366;50.764;7.184;2023-09-08T09:55:14;2.80;;;2.60;;
8656;SDS011;4366;50.764;7.184;2023-09-08T10:00:15;2.80;;;2.60;;
8656;SDS011;4366;50.764;7.184;2023-09-08T10:05:18;3.65;;;2.70;;
8656;SDS011;4366;50.764;7.184;2023-09-08T10:10:20;2.85;;;2.65;;
8656;SDS011;4366;50.764;7.184;2023-09-08T10:15:22;2.58;;;2.38;;
8656;SDS011;4366;50.764;7.184;2023-09-08T10:20:25;3.13;;;2.83;;
8656;SDS011;4366;50.764;7.184;2023-09-08T10:25:28;3.03;;;2.70;;
8656;SDS011;4366;50.764;7.184;2023-09-08T10:30:33;2.55;;;2.35;;
8656;SDS011;4366;50.764;7.184;2023-09-08T10:35:35;2.75;;;2.55;;
8656;SDS011;4366;50.764;7.184;2023-09-08T10:40:37;2.58;;;2.38;;
8656;SDS011;4366;50.764;7.184;2023-09-08T10:45:39;2.70;;;2.50;;
8656;SDS011;4366;50.764;7.184;2023-09-08T10:50:43;2.70;;;2.50;;
8656;SDS011;4366;50.764;7.184;2023-09-08T10:55:46;3.25;;;2.92;;
8656;SDS011;4366;50.764;7.184;2023-09-08T11:01:07;2.80;;;2.60;;
8656;SDS011;4366;50.764;7.184;2023-09-08T11:06:09;2.65;;;2.45;;
8656;SDS011;4366;50.764;7.184;2023-09-08T11:11:13;2.42;;;2.22;;
8656;SDS011;4366;50.764;7.184;2023-09-08T11:16:16;3.00;;;2.70;;
8656;SDS011;4366;50.764;7.184;2023-09-08T11:21:23;4.40;;;2.90;;
8656;SDS011;4366;50.764;7.184;2023-09-08T11:26:25;2.55;;;2.35;;
8656;SDS011;4366;50.764;7.184;2023-09-08T11:31:27;2.30;;;2.10;;
8656;SDS011;4366;50.764;7.184;2023-09-08T11:36:29;2.95;;;2.75;;
8656;SDS011;4366;50.764;7.184;2023-09-08T11:41:31;2.97;;;2.70;;
8656;SDS011;4366;50.764;7.184;2023-09-08T11:46:33;2.80;;;2.60;;
8656;SDS011;4366;50.764;7.184;2023-09-08T11:51:35;2.45;;;2.25;;
8656;SDS011;4366;50.764;7.184;2023-09-08T11:56:39;2.75;;;2.55;;
8656;SDS011;4366;50.764;7.184;2023-09-08T12:01:41;2.90;;;2.70;;
8656;SDS011;4366;50.764;7.184;2023-09-08T12:06:44;2.83;;;2.63;;
8656;SDS011;4366;50.764;7.184;2023-09-08T12:11:46;2.92;;;2.63;;
8656;SDS011;4366;50.764;7.184;2023-09-08T12:16:49;3.17;;;2.88;;
8656;SDS011;4366;50.764;7.184;2023-09-08T12:21:54;2.47;;;2.28;;
8656;SDS011;4366;50.764;7.184;2023-09-08T12:26:57;3.67;;;2.60;;
8656;SDS011;4366;50.764;7.184;2023-09-08T12:31:59;2.40;;;2.20;;
8656;SDS011;4366;50.764;7.184;2023-09-08T12:37:01;2.70;;;2.50;;
8656;SDS011;4366;50.764;7.184;2023-09-08T12:42:03;2.83;;;2.53;;
8656;SDS011;4366;50.764;7.184;2023-09-08T12:47:05;2.92;;;2.72;;
8656;SDS011;4366;50.764;7.184;2023-09-08T12:52:07;2.92;;;2.67;;
8656;SDS011;4366;50.764;7.184;2023-09-08T12:57:09;2.70;;;2.50;;
8656;SDS011;4366;50.764;7.184;2023-09-08T13:02:11;2.67;;;2.45;;
8656;SDS011;4366;50.764;7.184;2023-09-08T13:07:17;4.78;;;2.85;;
8656;SDS011;4366;50.764;7.184;2023-09-08T13:12:19;3.00;;;2.80;;
8656;SDS011;4366;50.764;7.184;2023-09-08T13:17:21;3.33;;;2.70;;
8656;SDS011;4366;50.764;7.184;2023-09-08T13:22:23;2.72;;;2.53;;
8656;SDS011;4366;50.764;7.184;2023-09-08T13:27:24;2.65;;;2.45;;
8656;SDS011;4366;50.764;7.184;2023-09-08T13:32:26;4.32;;;2.50;;
8656;SDS011;4366;50.764;7.184;2023-09-08T13:37:30;2.78;;;2.58;;
8656;SDS011;4366;50.764;7.184;2023-09-08T13:42:32;2.80;;;2.60;;
8656;SDS011;4366;50.764;7.184;2023-09-08T13:47:33;3.35;;;2.97;;
8656;SDS011;4366;50.764;7.184;2023-09-08T13:52:38;3.25;;;2.92;;
8656;SDS011;4366;50.764;7.184;2023-09-08T13:57:44;3.10;;;2.90;;
8656;SDS011;4366;50.764;7.184;2023-09-08T14:02:49;4.07;;;3.03;;
8656;SDS011;4366;50.764;7.184;2023-09-08T14:07:57;3.05;;;2.78;;
8656;SDS011;4366;50.764;7.184;2023-09-08T14:13:09;3.08;;;2.88;;
8656;SDS011;4366;50.764;7.184;2023-09-08T14:18:11;3.15;;;2.95;;
8656;SDS011;4366;50.764;7.184;2023-09-08T14:23:12;3.33;;;2.67;;
8656;SDS011;4366;50.764;7.184;2023-09-08T14:28:14;4.10;;;3.13;;
8656;SDS011;4366;50.764;7.184;2023-09-08T14:33:16;3.25;;;2.95;;
8656;SDS011;4366;50.764;7.184;2023-09-08T14:38:18;3.10;;;2.80;;
8656;SDS011;4366;50.764;7.184;2023-09-08T14:43:19;3.17;;;2.88;;
8656;SDS011;4366;50.764;7.184;2023-09-08T14:48:21;2.90;;;2.70;;
8656;SDS011;4366;50.764;7.184;2023-09-08T14:53:23;3.20;;;2.97;;
8656;SDS011;4366;50.764;7.184;2023-09-08T14:58:25;3.10;;;2.90;;
8656;SDS011;4366;50.764;7.184;2023-09-08T15:03:27;2.97;;;2.78;;
8656;SDS011;4366;50.764;7.184;2023-09-08T15:08:29;2.92;;;2.72;;
8656;SDS011;4366;50.764;7.184;2023-09-08T15:13:30;2.83;;;2.63;;
8656;SDS011;4366;50.764;7.184;2023-09-08T15:18:32;2.72;;;2.53;;
8656;SDS011;4366;50.764;7.184;2023-09-08T15:23:34;3.00;;;2.80;;
8656;SDS011;4366;50.764;7.184;2023-09-08T15:28:37;3.00;;;2.80;;
8656;SDS011;4366;50.764;7.184;2023-09-08T15:33:40;3.05;;;2.72;;
8656;SDS011;4366;50.764;7.184;2023-09-08T15:38:42;2.90;;;2.70;;
8656;SDS011;4366;50.764;7.184;2023-09-08T15:43:48;2.40;;;2.30;;
8656;SDS011;4366;50.764;7.184;2023-09-08T15:48:52;2.80;;;2.60;;
8656;SDS011;4366;50.764;7.184;2023-09-08T15:53:53;2.58;;;2.38;;
8656;SDS011;4366;50.764;7.184;2023-09-08T15:58:56;3.20;;;3.00;;
8656;SDS011;4366;50.764;7.184;2023-09-08T16:03:58;2.55;;;2.35;;
8656;SDS011;4366;50.764;7.184;2023-09-08T16:09:00;2.88;;;2.67;;
8656;SDS011;4366;50.764;7.184;2023-09-08T16:14:02;3.33;;;3.03;;
8656;SDS011;4366;50.764;7.184;2023-09-08T16:19:04;3.22;;;2.90;;
8656;SDS011;4366;50.764;7.184;2023-09-08T16:24:05;2.97;;;2.78;;
8656;SDS011;4366;50.764;7.184;2023-09-08T16:29:07;2.92;;;2.72;;
8656;SDS011;4366;50.764;7.184;2023-09-08T16:34:09;3.25;;;3.00;;
8656;SDS011;4366;50.764;7.184;2023-09-08T16:39:11;2.60;;;2.40;;
8656;SDS011;4366;50.764;7.184;2023-09-08T16:44:12;3.25;;;2.85;;
8656;SDS011;4366;50.764;7.184;2023-09-08T16:49:14;2.65;;;2.45;;
8656;SDS011;4366;50.764;7.184;2023-09-08T16:54:18;3.10;;;2.80;;
8656;SDS011;4366;50.764;7.184;2023-09-08T16:59:21;2.80;;;2.58;;
8656;SDS011;4366;50.764;7.184;2023-09-08T17:04:22;2.97;;;2.78;;
8656;SDS011;4366;50.764;7.184;2023-09-08T17:09:24;3.95;;;2.78;;
8656;SDS011;4366;50.764;7.184;2023-09-08T17:14:27;3.55;;;3.05;;
8656;SDS011;4366;50.764;7.184;2023-09-08T17:19:30;3.05;;;2.72;;
8656;SDS011;4366;50.764;7.184;2023-09-08T17:24:32;2.92;;;2.72;;
8656;SDS011;4366;50.764;7.184;2023-09-08T17:29:34;2.67;;;2.47;;
8656;SDS011;4366;50.764;7.184;2023-09-08T17:34:35;3.22;;;2.95;;
8656;SDS011;4366;50.764;7.184;2023-09-08T17:39:37;3.38;;;3.08;;
8656;SDS011;4366;50.764;7.184;2023-09-08T17:44:39;3.25;;;3.00;;
8656;SDS011;4366;50.764;7.184;2023-09-08T17:49:41;3.22;;;2.95;;
8656;SDS011;4366;50.764;7.184;2023-09-08T17:54:42;4.43;;;2.90;;
8656;SDS011;4366;50.764;7.184;2023-09-08T17:59:44;3.05;;;2.85;;
8656;SDS011;4366;50.764;7.184;2023-09-08T18:04:45;3.10;;;2.90;;
8656;SDS011;4366;50.764;7.184;2023-09-08T18:09:47;5.13;;;3.58;;
8656;SDS011;4366;50.764;7.184;2023-09-08T18:14:52;3.10;;;2.83;;
8656;SDS011;4366;50.764;7.184;2023-09-08T18:19:55;3.50;;;2.80;;
8656;SDS011;4366;50.764;7.184;2023-09-08T18:24:56;3.22;;;2.85;;
8656;SDS011;4366;50.764;7.184;2023-09-08T18:29:59;2.88;;;2.67;;
8656;SDS011;4366;50.764;7.184;2023-09-08T18:35:00;2.90;;;2.60;;
8656;SDS011;4366;50.764;7.184;2023-09-08T18:40:02;3.33;;;3.03;;
8656;SDS011;4366;50.764;7.184;2023-09-08T18:45:05;3.53;;;3.22;;
8656;SDS011;4366;50.764;7.184;2023-09-08T18:50:07;3.42;;;3.05;;
8656;SDS011;4366;50.764;7.184;2023-09-08T18:55:09;4.68;;;3.03;;
8656;SDS011;4366;50.764;7.184;2023-09-08T19:00:11;3.53;;;3.13;;
8656;SDS011;4366;50.764;7.184;2023-09-08T19:05:13;4.82;;;3.35;;
8656;SDS011;4366;50.764;7.184;2023-09-08T19:10:15;2.90;;;2.70;;
8656;SDS011;4366;50.764;7.184;2023-09-08T19:15:16;3.60;;;3.30;;
8656;SDS011;4366;50.764;7.184;2023-09-08T19:20:18;3.40;;;3.10;;
8656;SDS011;4366;50.764;7.184;2023-09-08T19:25:20;3.00;;;2.80;;
8656;SDS011;4366;50.764;7.184;2023-09-08T19:30:22;4.30;;;3.05;;
8656;SDS011;4366;50.764;7.184;2023-09-08T19:35:23;3.10;;;2.90;;
8656;SDS011;4366;50.764;7.184;2023-09-08T19:40:27;3.33;;;3.03;;
8656;SDS011;4366;50.764;7.184;2023-09-08T19:45:29;3.60;;;3.30;;
8656;SDS011;4366;50.764;7.184;2023-09-08T19:50:32;3.30;;;3.00;;
8656;SDS011;4366;50.764;7.184;2023-09-08T19:55:34;3.25;;;2.95;;
8656;SDS011;4366;50.764;7.184;2023-09-08T20:00:36;3.38;;;3.08;;
8656;SDS011;4366;50.764;7.184;2023-09-08T20:05:41;3.05;;;2.80;;
8656;SDS011;4366;50.764;7.184;2023-09-08T20:10:52;3.25;;;2.95;;
8656;SDS011;4366;50.764;7.184;2023-09-08T20:16:01;3.20;;;3.00;;
8656;SDS011;4366;50.764;7.184;2023-09-08T20:21:04;3.72;;;3.10;;
8656;SDS011;4366;50.764;7.184;2023-09-08T20:26:06;3.50;;;3.20;;
8656;SDS011;4366;50.764;7.184;2023-09-08T20:31:08;3.13;;;2.92;;
8656;SDS011;4366;50.764;7.184;2023-09-08T20:36:17;3.40;;;3.10;;
8656;SDS011;4366;50.764;7.184;2023-09-08T20:41:19;3.90;;;3.47;;
8656;SDS011;4366;50.764;7.184;2023-09-08T20:46:20;3.17;;;2.97;;
8656;SDS011;4366;50.764;7.184;2023-09-08T20:51:22;4.07;;;3.47;;
8656;SDS011;4366;50.764;7.184;2023-09-08T20:56:24;3.92;;;3.63;;
8656;SDS011;4366;50.764;7.184;2023-09-08T21:01:26;3.33;;;3.03;;
8656;SDS011;4366;50.764;7.184;2023-09-08T21:06:28;4.10;;;3.70;;
8656;SDS011;4366;50.764;7.184;2023-09-08T21:11:30;3.67;;;3.38;;
8656;SDS011;4366;50.764;7.184;2023-09-08T21:16:33;3.78;;;3.47;;
8656;SDS011;4366;50.764;7.184;2023-09-08T21:21:35;3.75;;;3.45;;
8656;SDS011;4366;50.764;7.184;2023-09-08T21:26:36;3.65;;;3.35;;
8656;SDS011;4366;50.764;7.184;2023-09-08T21:31:38;3.83;;;3.53;;
8656;SDS011;4366;50.764;7.184;2023-09-08T21:36:40;3.75;;;3.45;;
8656;SDS011;4366;50.764;7.184;2023-09-08T21:41:42;4.53;;;3.83;;
8656;SDS011;4366;50.764;7.184;2023-09-08T21:46:44;4.03;;;3.60;;
8656;SDS011;4366;50.764;7.184;2023-09-08T21:51:45;3.88;;;3.50;;
8656;SDS011;4366;50.764;7.184;2023-09-08T21:56:48;4.32;;;3.58;;
8656;SDS011;4366;50.764;7.184;2023-09-08T22:01:50;3.95;;;3.55;;
8656;SDS011;4366;50.764;7.184;2023-09-08T22:06:52;3.53;;;3.22;;
8656;SDS011;4366;50.764;7.184;2023-09-08T22:11:54;4.07;;;3.67;;
8656;SDS011;4366;50.764;7.184;2023-09-08T22:16:56;3.30;;;3.00;;
8656;SDS011;4366;50.764;7.184;2023-09-08T22:21:57;3.67;;;3.15;;
8656;SDS011;4366;50.764;7.184;2023-09-08T22:26:59;3.95;;;3.65;;
8656;SDS011;4366;50.764;7.184;2023-09-08T22:32:01;4.47;;;3.40;;
8656;SDS011;4366;50.764;7.184;2023-09-08T22:37:02;3.97;;;3.60;;
8656;SDS011;4366;50.764;7.184;2023-09-08T22:42:05;3.30;;;3.00;;
8656;SDS011;4366;50.764;7.184;2023-09-08T22:47:07;3.60;;;3.23;;
8656;SDS011;4366;50.764;7.184;2023-09-08T22:52:12;3.87;;;3.53;;
8656;SDS011;4366;50.764;7.184;2023-09-08T22:57:13;3.93;;;3.50;;
8656;SDS011;4366;50.764;7.184;2023-09-08T23:02:15;3.40;;;3.10;;
8656;SDS011;4366;50.764;7.184;2023-09-08T23:07:16;4.83;;;3.60;;
8656;SDS011;4366;50.764;7.184;2023-09-08T23:12:19;3.90;;;3.50;;
8656;SDS011;4366;50.764;7.184;2023-09-08T23:17:20;3.70;;;3.40;;
8656;SDS011;4366;50.764;7.184;2023-09-08T23:22:22;4.83;;;3.80;;
8656;SDS011;4366;50.764;7.184;2023-09-08T23:27:24;3.30;;;3.00;;
8656;SDS011;4366;50.764;7.184;2023-09-08T23:32:26;3.53;;;3.23;;
8656;SDS011;4366;50.764;7.184;2023-09-08T23:37:27;4.53;;;4.10;;
8656;SDS011;4366;50.764;7.184;2023-09-08T23:42:29;4.10;;;3.60;;
8656;SDS011;4366;50.764;7.184;2023-09-08T23:47:31;4.63;;;3.70;;
8656;SDS011;4366;50.764;7.184;2023-09-08T23:52:33;3.70;;;3.40;;
8656;SDS011;4366;50.764;7.184;2023-09-08T23:57:34;3.73;;;3.13;;
